sensor_id;sensor_type;location;lat;lon;timestamp;P1;durP1;ratioP1;P2;durP2;ratioP2
19687;SDS011;9993;52.008;4.732;2023-02-19T00:01:09;23.57;;;9.07;;
19687;SDS011;9993;52.008;4.732;2023-02-19T00:03:35;22.60;;;8.83;;
19687;SDS011;9993;52.008;4.732;2023-02-19T00:06:01;18.87;;;8.37;;
19687;SDS011;9993;52.008;4.732;2023-02-19T00:08:28;14.77;;;8.97;;
19687;SDS011;9993;52.008;4.732;2023-02-19T00:10:53;25.13;;;8.73;;
19687;SDS011;9993;52.008;4.732;2023-02-19T00:13:18;18.77;;;7.77;;
19687;SDS011;9993;52.008;4.732;2023-02-19T00:15:43;17.13;;;7.07;;
19687;SDS011;9993;52.008;4.732;2023-02-19T00:18:09;21.93;;;7.00;;
19687;SDS011;9993;52.008;4.732;2023-02-19T00:20:34;24.60;;;7.23;;
19687;SDS011;9993;52.008;4.732;2023-02-19T00:22:59;22.63;;;7.87;;
19687;SDS011;9993;52.008;4.732;2023-02-19T00:25:25;13.67;;;6.30;;
19687;SDS011;9993;52.008;4.732;2023-02-19T00:27:50;23.17;;;7.17;;
19687;SDS011;9993;52.008;4.732;2023-02-19T00:30:15;15.43;;;5.93;;
19687;SDS011;9993;52.008;4.732;2023-02-19T00:32:40;22.97;;;6.63;;
19687;SDS011;9993;52.008;4.732;2023-02-19T00:35:05;18.97;;;6.43;;
19687;SDS011;9993;52.008;4.732;2023-02-19T00:37:31;17.83;;;6.43;;
19687;SDS011;9993;52.008;4.732;2023-02-19T00:39:56;15.77;;;5.87;;
19687;SDS011;9993;52.008;4.732;2023-02-19T00:42:21;11.37;;;4.77;;
19687;SDS011;9993;52.008;4.732;2023-02-19T00:44:46;15.40;;;5.53;;
19687;SDS011;9993;52.008;4.732;2023-02-19T00:47:11;17.73;;;6.00;;
19687;SDS011;9993;52.008;4.732;2023-02-19T00:49:37;18.20;;;5.43;;
19687;SDS011;9993;52.008;4.732;2023-02-19T00:52:02;14.80;;;5.60;;
19687;SDS011;9993;52.008;4.732;2023-02-19T00:54:27;14.23;;;5.63;;
19687;SDS011;9993;52.008;4.732;2023-02-19T00:56:52;13.20;;;5.30;;
19687;SDS011;9993;52.008;4.732;2023-02-19T00:59:18;16.27;;;5.63;;
19687;SDS011;9993;52.008;4.732;2023-02-19T01:01:43;15.00;;;5.17;;
19687;SDS011;9993;52.008;4.732;2023-02-19T01:04:08;15.87;;;5.57;;
19687;SDS011;9993;52.008;4.732;2023-02-19T01:06:34;21.53;;;5.83;;
19687;SDS011;9993;52.008;4.732;2023-02-19T01:08:59;13.67;;;4.67;;
19687;SDS011;9993;52.008;4.732;2023-02-19T01:11:24;14.67;;;5.10;;
19687;SDS011;9993;52.008;4.732;2023-02-19T01:13:51;18.17;;;4.60;;
19687;SDS011;9993;52.008;4.732;2023-02-19T01:16:20;15.57;;;5.47;;
19687;SDS011;9993;52.008;4.732;2023-02-19T01:18:46;10.23;;;4.30;;
19687;SDS011;9993;52.008;4.732;2023-02-19T01:21:12;11.57;;;4.83;;
19687;SDS011;9993;52.008;4.732;2023-02-19T01:23:37;7.17;;;4.60;;
19687;SDS011;9993;52.008;4.732;2023-02-19T01:26:03;13.83;;;5.03;;
19687;SDS011;9993;52.008;4.732;2023-02-19T01:28:29;18.13;;;5.43;;
19687;SDS011;9993;52.008;4.732;2023-02-19T01:30:55;16.73;;;4.90;;
19687;SDS011;9993;52.008;4.732;2023-02-19T01:33:26;11.03;;;5.33;;
19687;SDS011;9993;52.008;4.732;2023-02-19T01:35:54;15.03;;;5.97;;
19687;SDS011;9993;52.008;4.732;2023-02-19T01:38:19;15.03;;;4.63;;
19687;SDS011;9993;52.008;4.732;2023-02-19T01:40:52;12.43;;;4.80;;
19687;SDS011;9993;52.008;4.732;2023-02-19T01:43:17;16.57;;;4.57;;
19687;SDS011;9993;52.008;4.732;2023-02-19T01:45:43;17.73;;;4.33;;
19687;SDS011;9993;52.008;4.732;2023-02-19T01:48:19;13.60;;;4.17;;
19687;SDS011;9993;52.008;4.732;2023-02-19T01:50:48;10.63;;;4.97;;
19687;SDS011;9993;52.008;4.732;2023-02-19T01:53:15;14.23;;;4.57;;
19687;SDS011;9993;52.008;4.732;2023-02-19T01:55:42;14.47;;;4.90;;
19687;SDS011;9993;52.008;4.732;2023-02-19T01:58:08;11.40;;;4.33;;
19687;SDS011;9993;52.008;4.732;2023-02-19T02:00:34;15.97;;;4.63;;
19687;SDS011;9993;52.008;4.732;2023-02-19T02:03:00;17.67;;;5.47;;
19687;SDS011;9993;52.008;4.732;2023-02-19T02:08:00;17.73;;;5.50;;
19687;SDS011;9993;52.008;4.732;2023-02-19T02:10:44;13.53;;;4.93;;
19687;SDS011;9993;52.008;4.732;2023-02-19T02:13:10;8.63;;;4.13;;
19687;SDS011;9993;52.008;4.732;2023-02-19T02:15:38;19.17;;;4.63;;
19687;SDS011;9993;52.008;4.732;2023-02-19T02:18:09;16.47;;;4.73;;
19687;SDS011;9993;52.008;4.732;2023-02-19T02:23:23;12.10;;;5.63;;
19687;SDS011;9993;52.008;4.732;2023-02-19T02:28:41;13.60;;;4.40;;
19687;SDS011;9993;52.008;4.732;2023-02-19T02:31:24;8.93;;;4.13;;
19687;SDS011;9993;52.008;4.732;2023-02-19T02:37:33;13.83;;;4.47;;
19687;SDS011;9993;52.008;4.732;2023-02-19T02:39:59;12.83;;;4.77;;
19687;SDS011;9993;52.008;4.732;2023-02-19T02:42:24;14.27;;;3.37;;
19687;SDS011;9993;52.008;4.732;2023-02-19T02:44:53;7.73;;;3.73;;
19687;SDS011;9993;52.008;4.732;2023-02-19T02:47:46;16.87;;;3.83;;
19687;SDS011;9993;52.008;4.732;2023-02-19T02:52:58;7.80;;;4.40;;
19687;SDS011;9993;52.008;4.732;2023-02-19T02:55:44;7.90;;;3.57;;
19687;SDS011;9993;52.008;4.732;2023-02-19T02:58:10;8.63;;;4.30;;
19687;SDS011;9993;52.008;4.732;2023-02-19T03:00:37;8.87;;;4.17;;
19687;SDS011;9993;52.008;4.732;2023-02-19T03:03:22;15.47;;;4.60;;
19687;SDS011;9993;52.008;4.732;2023-02-19T03:05:48;10.20;;;5.00;;
19687;SDS011;9993;52.008;4.732;2023-02-19T03:11:04;8.53;;;4.47;;
19687;SDS011;9993;52.008;4.732;2023-02-19T03:13:52;8.77;;;3.93;;
19687;SDS011;9993;52.008;4.732;2023-02-19T03:16:38;9.97;;;3.97;;
19687;SDS011;9993;52.008;4.732;2023-02-19T03:19:24;10.40;;;4.33;;
19687;SDS011;9993;52.008;4.732;2023-02-19T03:22:09;8.43;;;3.63;;
19687;SDS011;9993;52.008;4.732;2023-02-19T03:24:50;16.63;;;4.60;;
19687;SDS011;9993;52.008;4.732;2023-02-19T03:27:35;16.60;;;4.50;;
19687;SDS011;9993;52.008;4.732;2023-02-19T03:30:03;8.47;;;3.40;;
19687;SDS011;9993;52.008;4.732;2023-02-19T03:32:45;12.83;;;4.40;;
19687;SDS011;9993;52.008;4.732;2023-02-19T03:35:18;10.23;;;3.53;;
19687;SDS011;9993;52.008;4.732;2023-02-19T03:40:19;11.63;;;4.13;;
19687;SDS011;9993;52.008;4.732;2023-02-19T03:42:52;16.70;;;4.63;;
19687;SDS011;9993;52.008;4.732;2023-02-19T03:47:48;10.83;;;4.37;;
19687;SDS011;9993;52.008;4.732;2023-02-19T03:50:41;15.77;;;3.60;;
19687;SDS011;9993;52.008;4.732;2023-02-19T04:01:33;9.00;;;4.30;;
19687;SDS011;9993;52.008;4.732;2023-02-19T04:06:46;10.00;;;4.10;;
19687;SDS011;9993;52.008;4.732;2023-02-19T04:09:16;10.53;;;3.67;;
19687;SDS011;9993;52.008;4.732;2023-02-19T04:11:43;11.03;;;4.07;;
19687;SDS011;9993;52.008;4.732;2023-02-19T04:14:09;9.97;;;3.63;;
19687;SDS011;9993;52.008;4.732;2023-02-19T04:16:38;15.53;;;3.90;;
19687;SDS011;9993;52.008;4.732;2023-02-19T04:19:06;13.20;;;3.93;;
19687;SDS011;9993;52.008;4.732;2023-02-19T04:21:32;12.33;;;3.50;;
19687;SDS011;9993;52.008;4.732;2023-02-19T04:23:59;6.20;;;3.37;;
19687;SDS011;9993;52.008;4.732;2023-02-19T04:29:37;11.90;;;3.83;;
19687;SDS011;9993;52.008;4.732;2023-02-19T04:32:12;10.57;;;4.30;;
19687;SDS011;9993;52.008;4.732;2023-02-19T04:34:40;11.13;;;4.13;;
19687;SDS011;9993;52.008;4.732;2023-02-19T04:37:05;6.33;;;3.37;;
19687;SDS011;9993;52.008;4.732;2023-02-19T04:39:31;7.23;;;3.83;;
19687;SDS011;9993;52.008;4.732;2023-02-19T04:42:37;11.60;;;4.57;;
19687;SDS011;9993;52.008;4.732;2023-02-19T04:45:15;9.47;;;3.70;;
19687;SDS011;9993;52.008;4.732;2023-02-19T04:51:08;15.37;;;4.70;;
19687;SDS011;9993;52.008;4.732;2023-02-19T04:53:49;13.73;;;4.17;;
19687;SDS011;9993;52.008;4.732;2023-02-19T04:56:14;16.20;;;4.87;;
19687;SDS011;9993;52.008;4.732;2023-02-19T04:58:56;10.17;;;3.40;;
19687;SDS011;9993;52.008;4.732;2023-02-19T05:01:30;11.07;;;3.97;;
19687;SDS011;9993;52.008;4.732;2023-02-19T05:04:00;11.10;;;3.87;;
19687;SDS011;9993;52.008;4.732;2023-02-19T05:06:25;14.13;;;4.40;;
19687;SDS011;9993;52.008;4.732;2023-02-19T05:08:51;15.73;;;3.43;;
19687;SDS011;9993;52.008;4.732;2023-02-19T05:11:16;11.23;;;4.07;;
19687;SDS011;9993;52.008;4.732;2023-02-19T05:13:44;10.43;;;4.47;;
19687;SDS011;9993;52.008;4.732;2023-02-19T05:16:10;16.20;;;3.90;;
19687;SDS011;9993;52.008;4.732;2023-02-19T05:18:38;9.93;;;4.30;;
19687;SDS011;9993;52.008;4.732;2023-02-19T05:21:12;9.20;;;3.57;;
19687;SDS011;9993;52.008;4.732;2023-02-19T05:23:38;12.83;;;4.50;;
19687;SDS011;9993;52.008;4.732;2023-02-19T05:26:14;11.67;;;4.63;;
19687;SDS011;9993;52.008;4.732;2023-02-19T05:28:43;16.00;;;4.33;;
19687;SDS011;9993;52.008;4.732;2023-02-19T05:31:09;7.17;;;4.43;;
19687;SDS011;9993;52.008;4.732;2023-02-19T05:33:35;12.93;;;3.97;;
19687;SDS011;9993;52.008;4.732;2023-02-19T05:36:03;12.23;;;5.23;;
19687;SDS011;9993;52.008;4.732;2023-02-19T05:38:28;13.30;;;4.83;;
19687;SDS011;9993;52.008;4.732;2023-02-19T05:40:54;13.40;;;4.03;;
19687;SDS011;9993;52.008;4.732;2023-02-19T05:43:19;11.80;;;5.20;;
19687;SDS011;9993;52.008;4.732;2023-02-19T05:45:44;18.43;;;5.10;;
19687;SDS011;9993;52.008;4.732;2023-02-19T05:48:09;13.47;;;4.50;;
19687;SDS011;9993;52.008;4.732;2023-02-19T05:50:35;7.97;;;4.00;;
19687;SDS011;9993;52.008;4.732;2023-02-19T05:53:01;9.20;;;4.10;;
19687;SDS011;9993;52.008;4.732;2023-02-19T05:55:27;8.90;;;4.90;;
19687;SDS011;9993;52.008;4.732;2023-02-19T05:57:52;10.17;;;4.77;;
19687;SDS011;9993;52.008;4.732;2023-02-19T06:00:18;13.83;;;6.27;;
19687;SDS011;9993;52.008;4.732;2023-02-19T06:02:43;8.27;;;4.90;;
19687;SDS011;9993;52.008;4.732;2023-02-19T06:05:09;9.63;;;4.90;;
19687;SDS011;9993;52.008;4.732;2023-02-19T06:07:34;16.83;;;5.03;;
19687;SDS011;9993;52.008;4.732;2023-02-19T06:10:00;10.83;;;4.60;;
19687;SDS011;9993;52.008;4.732;2023-02-19T06:12:25;9.27;;;5.10;;
19687;SDS011;9993;52.008;4.732;2023-02-19T06:14:50;8.40;;;4.67;;
19687;SDS011;9993;52.008;4.732;2023-02-19T06:17:16;7.33;;;4.00;;
19687;SDS011;9993;52.008;4.732;2023-02-19T06:19:41;12.87;;;5.50;;
19687;SDS011;9993;52.008;4.732;2023-02-19T06:22:06;9.00;;;4.63;;
19687;SDS011;9993;52.008;4.732;2023-02-19T06:24:34;8.57;;;4.70;;
19687;SDS011;9993;52.008;4.732;2023-02-19T06:27:04;8.87;;;4.67;;
19687;SDS011;9993;52.008;4.732;2023-02-19T06:29:35;9.73;;;4.40;;
19687;SDS011;9993;52.008;4.732;2023-02-19T06:32:32;10.63;;;4.73;;
19687;SDS011;9993;52.008;4.732;2023-02-19T06:35:08;8.40;;;4.50;;
19687;SDS011;9993;52.008;4.732;2023-02-19T06:37:33;9.97;;;4.80;;
19687;SDS011;9993;52.008;4.732;2023-02-19T06:40:11;13.07;;;4.70;;
19687;SDS011;9993;52.008;4.732;2023-02-19T06:42:47;15.57;;;6.13;;
19687;SDS011;9993;52.008;4.732;2023-02-19T06:45:22;7.90;;;4.43;;
19687;SDS011;9993;52.008;4.732;2023-02-19T06:47:47;12.00;;;5.70;;
19687;SDS011;9993;52.008;4.732;2023-02-19T06:50:13;10.97;;;5.50;;
19687;SDS011;9993;52.008;4.732;2023-02-19T06:52:39;14.50;;;5.90;;
19687;SDS011;9993;52.008;4.732;2023-02-19T06:55:07;12.47;;;5.40;;
19687;SDS011;9993;52.008;4.732;2023-02-19T06:57:32;13.57;;;5.57;;
19687;SDS011;9993;52.008;4.732;2023-02-19T07:05:43;12.17;;;5.17;;
19687;SDS011;9993;52.008;4.732;2023-02-19T07:10:56;13.67;;;6.07;;
19687;SDS011;9993;52.008;4.732;2023-02-19T07:16:27;13.80;;;5.50;;
19687;SDS011;9993;52.008;4.732;2023-02-19T07:18:54;7.73;;;4.97;;
19687;SDS011;9993;52.008;4.732;2023-02-19T07:21:28;10.80;;;4.80;;
19687;SDS011;9993;52.008;4.732;2023-02-19T07:27:13;8.30;;;5.03;;
19687;SDS011;9993;52.008;4.732;2023-02-19T07:29:39;11.33;;;5.43;;
19687;SDS011;9993;52.008;4.732;2023-02-19T07:32:04;15.77;;;6.23;;
19687;SDS011;9993;52.008;4.732;2023-02-19T07:34:34;12.83;;;5.57;;
19687;SDS011;9993;52.008;4.732;2023-02-19T07:36:59;10.60;;;5.97;;
19687;SDS011;9993;52.008;4.732;2023-02-19T07:39:27;10.70;;;5.03;;
19687;SDS011;9993;52.008;4.732;2023-02-19T07:41:52;8.83;;;5.90;;
19687;SDS011;9993;52.008;4.732;2023-02-19T07:44:20;12.73;;;5.97;;
19687;SDS011;9993;52.008;4.732;2023-02-19T07:46:45;9.93;;;4.77;;
19687;SDS011;9993;52.008;4.732;2023-02-19T07:49:21;11.80;;;5.20;;
19687;SDS011;9993;52.008;4.732;2023-02-19T07:51:46;10.57;;;5.80;;
19687;SDS011;9993;52.008;4.732;2023-02-19T07:54:11;12.83;;;5.77;;
19687;SDS011;9993;52.008;4.732;2023-02-19T07:56:37;12.97;;;6.30;;
19687;SDS011;9993;52.008;4.732;2023-02-19T07:59:05;12.80;;;7.60;;
19687;SDS011;9993;52.008;4.732;2023-02-19T08:01:31;7.70;;;5.60;;
19687;SDS011;9993;52.008;4.732;2023-02-19T08:07:17;12.60;;;6.20;;
19687;SDS011;9993;52.008;4.732;2023-02-19T08:09:42;15.00;;;6.57;;
19687;SDS011;9993;52.008;4.732;2023-02-19T08:12:09;13.73;;;6.60;;
19687;SDS011;9993;52.008;4.732;2023-02-19T08:14:53;12.60;;;6.87;;
19687;SDS011;9993;52.008;4.732;2023-02-19T08:17:18;14.70;;;4.87;;
19687;SDS011;9993;52.008;4.732;2023-02-19T08:19:44;13.43;;;7.10;;
19687;SDS011;9993;52.008;4.732;2023-02-19T08:22:09;12.83;;;6.70;;
19687;SDS011;9993;52.008;4.732;2023-02-19T08:24:34;13.80;;;5.67;;
19687;SDS011;9993;52.008;4.732;2023-02-19T08:27:01;16.20;;;6.00;;
19687;SDS011;9993;52.008;4.732;2023-02-19T08:29:26;21.97;;;6.30;;
19687;SDS011;9993;52.008;4.732;2023-02-19T08:31:52;10.30;;;5.70;;
19687;SDS011;9993;52.008;4.732;2023-02-19T08:34:17;17.17;;;6.37;;
19687;SDS011;9993;52.008;4.732;2023-02-19T08:36:42;15.13;;;6.20;;
19687;SDS011;9993;52.008;4.732;2023-02-19T08:39:08;15.43;;;6.50;;
19687;SDS011;9993;52.008;4.732;2023-02-19T08:41:34;14.93;;;6.30;;
19687;SDS011;9993;52.008;4.732;2023-02-19T08:43:59;11.63;;;6.60;;
19687;SDS011;9993;52.008;4.732;2023-02-19T08:46:24;8.47;;;5.23;;
19687;SDS011;9993;52.008;4.732;2023-02-19T08:48:49;14.23;;;6.23;;
19687;SDS011;9993;52.008;4.732;2023-02-19T08:51:15;10.73;;;5.83;;
19687;SDS011;9993;52.008;4.732;2023-02-19T08:53:40;11.17;;;4.87;;
19687;SDS011;9993;52.008;4.732;2023-02-19T08:56:09;12.73;;;6.03;;
19687;SDS011;9993;52.008;4.732;2023-02-19T08:58:35;13.27;;;6.17;;
19687;SDS011;9993;52.008;4.732;2023-02-19T09:01:01;14.20;;;6.20;;
19687;SDS011;9993;52.008;4.732;2023-02-19T09:03:26;15.23;;;5.93;;
19687;SDS011;9993;52.008;4.732;2023-02-19T09:05:51;13.47;;;6.03;;
19687;SDS011;9993;52.008;4.732;2023-02-19T09:08:17;13.77;;;5.80;;
19687;SDS011;9993;52.008;4.732;2023-02-19T09:10:43;11.33;;;5.07;;
19687;SDS011;9993;52.008;4.732;2023-02-19T09:13:08;11.13;;;5.37;;
19687;SDS011;9993;52.008;4.732;2023-02-19T09:15:33;13.87;;;5.60;;
19687;SDS011;9993;52.008;4.732;2023-02-19T09:17:59;13.10;;;5.87;;
19687;SDS011;9993;52.008;4.732;2023-02-19T09:20:24;11.80;;;4.90;;
19687;SDS011;9993;52.008;4.732;2023-02-19T09:22:49;12.53;;;5.07;;
19687;SDS011;9993;52.008;4.732;2023-02-19T09:25:14;16.23;;;5.77;;
19687;SDS011;9993;52.008;4.732;2023-02-19T09:27:40;18.30;;;5.70;;
19687;SDS011;9993;52.008;4.732;2023-02-19T09:30:05;11.27;;;5.10;;
19687;SDS011;9993;52.008;4.732;2023-02-19T09:32:30;10.47;;;4.47;;
19687;SDS011;9993;52.008;4.732;2023-02-19T09:34:56;15.07;;;5.37;;
19687;SDS011;9993;52.008;4.732;2023-02-19T09:37:27;17.17;;;5.90;;
19687;SDS011;9993;52.008;4.732;2023-02-19T09:39:53;18.03;;;5.43;;
19687;SDS011;9993;52.008;4.732;2023-02-19T09:42:22;15.70;;;4.53;;
19687;SDS011;9993;52.008;4.732;2023-02-19T09:44:50;16.33;;;4.70;;
19687;SDS011;9993;52.008;4.732;2023-02-19T09:47:17;14.87;;;5.70;;
19687;SDS011;9993;52.008;4.732;2023-02-19T09:49:43;8.60;;;4.27;;
19687;SDS011;9993;52.008;4.732;2023-02-19T09:52:23;14.67;;;3.93;;
19687;SDS011;9993;52.008;4.732;2023-02-19T09:54:51;8.03;;;4.07;;
19687;SDS011;9993;52.008;4.732;2023-02-19T09:57:21;11.70;;;3.87;;
19687;SDS011;9993;52.008;4.732;2023-02-19T09:59:48;10.97;;;3.87;;
19687;SDS011;9993;52.008;4.732;2023-02-19T10:02:16;12.87;;;4.23;;
19687;SDS011;9993;52.008;4.732;2023-02-19T10:04:42;6.27;;;3.70;;
19687;SDS011;9993;52.008;4.732;2023-02-19T10:07:14;7.43;;;3.20;;
19687;SDS011;9993;52.008;4.732;2023-02-19T10:09:40;7.17;;;2.83;;
19687;SDS011;9993;52.008;4.732;2023-02-19T10:12:15;8.87;;;3.00;;
19687;SDS011;9993;52.008;4.732;2023-02-19T10:14:44;4.23;;;2.97;;
19687;SDS011;9993;52.008;4.732;2023-02-19T10:17:14;3.90;;;3.50;;
19687;SDS011;9993;52.008;4.732;2023-02-19T10:19:41;3.60;;;2.80;;
19687;SDS011;9993;52.008;4.732;2023-02-19T10:22:07;2.87;;;2.47;;
19687;SDS011;9993;52.008;4.732;2023-02-19T10:24:35;3.67;;;2.23;;
19687;SDS011;9993;52.008;4.732;2023-02-19T10:27:00;3.00;;;2.30;;
19687;SDS011;9993;52.008;4.732;2023-02-19T10:29:26;4.33;;;2.53;;
19687;SDS011;9993;52.008;4.732;2023-02-19T10:34:35;4.47;;;2.30;;
19687;SDS011;9993;52.008;4.732;2023-02-19T10:37:01;6.37;;;2.20;;
19687;SDS011;9993;52.008;4.732;2023-02-19T10:41:54;3.33;;;1.83;;
19687;SDS011;9993;52.008;4.732;2023-02-19T10:44:20;2.83;;;2.30;;
19687;SDS011;9993;52.008;4.732;2023-02-19T10:46:47;4.07;;;2.53;;
19687;SDS011;9993;52.008;4.732;2023-02-19T11:03:17;6.47;;;3.37;;
19687;SDS011;9993;52.008;4.732;2023-02-19T11:05:53;4.67;;;2.70;;
19687;SDS011;9993;52.008;4.732;2023-02-19T11:08:21;5.00;;;3.10;;
19687;SDS011;9993;52.008;4.732;2023-02-19T11:10:47;6.17;;;3.17;;
19687;SDS011;9993;52.008;4.732;2023-02-19T11:13:13;6.77;;;2.63;;
19687;SDS011;9993;52.008;4.732;2023-02-19T11:15:40;6.53;;;2.83;;
19687;SDS011;9993;52.008;4.732;2023-02-19T11:18:22;4.83;;;2.90;;
19687;SDS011;9993;52.008;4.732;2023-02-19T11:23:22;3.83;;;2.23;;
19687;SDS011;9993;52.008;4.732;2023-02-19T11:25:48;3.27;;;2.30;;
19687;SDS011;9993;52.008;4.732;2023-02-19T11:31:16;4.50;;;2.30;;
19687;SDS011;9993;52.008;4.732;2023-02-19T11:33:58;4.10;;;2.33;;
19687;SDS011;9993;52.008;4.732;2023-02-19T11:36:28;2.33;;;1.90;;
19687;SDS011;9993;52.008;4.732;2023-02-19T11:38:53;4.60;;;2.10;;
19687;SDS011;9993;52.008;4.732;2023-02-19T11:47:21;3.87;;;1.87;;
19687;SDS011;9993;52.008;4.732;2023-02-19T11:49:42;3.77;;;2.17;;
19687;SDS011;9993;52.008;4.732;2023-02-19T11:52:14;2.63;;;1.93;;
19687;SDS011;9993;52.008;4.732;2023-02-19T11:57:40;3.57;;;2.10;;
19687;SDS011;9993;52.008;4.732;2023-02-19T12:00:25;5.50;;;2.00;;
19687;SDS011;9993;52.008;4.732;2023-02-19T12:08:40;2.30;;;2.10;;
19687;SDS011;9993;52.008;4.732;2023-02-19T12:33:14;2.87;;;2.53;;
19687;SDS011;9993;52.008;4.732;2023-02-19T12:43:52;4.30;;;3.00;;
19687;SDS011;9993;52.008;4.732;2023-02-19T12:46:30;4.97;;;2.70;;
19687;SDS011;9993;52.008;4.732;2023-02-19T12:49:09;4.43;;;2.50;;
19687;SDS011;9993;52.008;4.732;2023-02-19T12:51:40;4.80;;;2.70;;
19687;SDS011;9993;52.008;4.732;2023-02-19T12:56:38;2.37;;;2.20;;
19687;SDS011;9993;52.008;4.732;2023-02-19T12:59:12;2.00;;;1.90;;
19687;SDS011;9993;52.008;4.732;2023-02-19T13:02:22;2.20;;;2.00;;
19687;SDS011;9993;52.008;4.732;2023-02-19T13:04:47;4.90;;;4.00;;
19687;SDS011;9993;52.008;4.732;2023-02-19T13:07:19;6.17;;;5.10;;
19687;SDS011;9993;52.008;4.732;2023-02-19T13:09:47;7.53;;;4.93;;
19687;SDS011;9993;52.008;4.732;2023-02-19T13:12:14;9.90;;;5.70;;
19687;SDS011;9993;52.008;4.732;2023-02-19T13:19:44;7.40;;;4.70;;
19687;SDS011;9993;52.008;4.732;2023-02-19T13:22:17;6.67;;;5.03;;
19687;SDS011;9993;52.008;4.732;2023-02-19T13:25:06;7.00;;;5.13;;
19687;SDS011;9993;52.008;4.732;2023-02-19T13:38:15;8.37;;;4.97;;
19687;SDS011;9993;52.008;4.732;2023-02-19T13:40:40;8.13;;;5.30;;
19687;SDS011;9993;52.008;4.732;2023-02-19T13:43:40;6.47;;;4.70;;
19687;SDS011;9993;52.008;4.732;2023-02-19T13:46:04;10.07;;;5.37;;
19687;SDS011;9993;52.008;4.732;2023-02-19T13:48:34;7.67;;;5.40;;
19687;SDS011;9993;52.008;4.732;2023-02-19T14:04:23;35.17;;;18.17;;
19687;SDS011;9993;52.008;4.732;2023-02-19T14:17:24;5.70;;;4.23;;
19687;SDS011;9993;52.008;4.732;2023-02-19T14:20:00;5.40;;;4.63;;
19687;SDS011;9993;52.008;4.732;2023-02-19T14:27:53;3.93;;;3.47;;
19687;SDS011;9993;52.008;4.732;2023-02-19T14:30:21;3.37;;;3.07;;
19687;SDS011;9993;52.008;4.732;2023-02-19T14:32:46;3.63;;;3.13;;
19687;SDS011;9993;52.008;4.732;2023-02-19T14:35:19;3.50;;;3.20;;
19687;SDS011;9993;52.008;4.732;2023-02-19T14:37:45;7.30;;;3.50;;
19687;SDS011;9993;52.008;4.732;2023-02-19T14:40:18;4.20;;;3.30;;
19687;SDS011;9993;52.008;4.732;2023-02-19T14:42:45;4.80;;;3.40;;
19687;SDS011;9993;52.008;4.732;2023-02-19T14:45:12;7.97;;;5.47;;
19687;SDS011;9993;52.008;4.732;2023-02-19T14:47:39;3.20;;;2.90;;
19687;SDS011;9993;52.008;4.732;2023-02-19T14:50:12;2.90;;;2.60;;
19687;SDS011;9993;52.008;4.732;2023-02-19T14:52:39;1.83;;;1.70;;
19687;SDS011;9993;52.008;4.732;2023-02-19T14:57:34;5.80;;;3.97;;
19687;SDS011;9993;52.008;4.732;2023-02-19T15:00:02;3.07;;;2.77;;
19687;SDS011;9993;52.008;4.732;2023-02-19T15:02:28;2.37;;;1.80;;
19687;SDS011;9993;52.008;4.732;2023-02-19T15:04:54;1.80;;;1.70;;
19687;SDS011;9993;52.008;4.732;2023-02-19T15:07:20;2.40;;;2.20;;
19687;SDS011;9993;52.008;4.732;2023-02-19T15:09:48;1.53;;;1.43;;
19687;SDS011;9993;52.008;4.732;2023-02-19T15:12:34;4.10;;;2.63;;
19687;SDS011;9993;52.008;4.732;2023-02-19T15:15:00;2.93;;;2.60;;
19687;SDS011;9993;52.008;4.732;2023-02-19T15:17:30;1.80;;;1.70;;
19687;SDS011;9993;52.008;4.732;2023-02-19T15:19:56;2.30;;;2.10;;
19687;SDS011;9993;52.008;4.732;2023-02-19T15:22:23;4.97;;;2.20;;
19687;SDS011;9993;52.008;4.732;2023-02-19T15:24:49;2.30;;;2.10;;
19687;SDS011;9993;52.008;4.732;2023-02-19T15:27:18;2.87;;;2.33;;
19687;SDS011;9993;52.008;4.732;2023-02-19T15:29:45;2.50;;;1.80;;
19687;SDS011;9993;52.008;4.732;2023-02-19T15:32:17;3.47;;;2.10;;
19687;SDS011;9993;52.008;4.732;2023-02-19T15:34:51;3.10;;;2.00;;
19687;SDS011;9993;52.008;4.732;2023-02-19T15:37:16;3.00;;;1.63;;
19687;SDS011;9993;52.008;4.732;2023-02-19T15:39:45;2.40;;;2.00;;
19687;SDS011;9993;52.008;4.732;2023-02-19T15:42:25;4.40;;;2.43;;
19687;SDS011;9993;52.008;4.732;2023-02-19T15:47:44;4.60;;;2.50;;
19687;SDS011;9993;52.008;4.732;2023-02-19T15:50:29;2.20;;;2.00;;
19687;SDS011;9993;52.008;4.732;2023-02-19T15:52:56;3.40;;;2.40;;
19687;SDS011;9993;52.008;4.732;2023-02-19T16:00:40;1.57;;;1.47;;
19687;SDS011;9993;52.008;4.732;2023-02-19T16:03:15;1.57;;;1.47;;
19687;SDS011;9993;52.008;4.732;2023-02-19T16:05:41;1.73;;;1.63;;
19687;SDS011;9993;52.008;4.732;2023-02-19T16:10:35;1.70;;;1.60;;
19687;SDS011;9993;52.008;4.732;2023-02-19T16:13:01;1.90;;;1.80;;
19687;SDS011;9993;52.008;4.732;2023-02-19T16:15:27;1.50;;;1.40;;
19687;SDS011;9993;52.008;4.732;2023-02-19T16:17:53;3.17;;;2.43;;
19687;SDS011;9993;52.008;4.732;2023-02-19T16:20:23;5.27;;;1.80;;
19687;SDS011;9993;52.008;4.732;2023-02-19T16:22:49;3.27;;;2.97;;
19687;SDS011;9993;52.008;4.732;2023-02-19T16:28:10;1.57;;;1.47;;
19687;SDS011;9993;52.008;4.732;2023-02-19T16:30:35;2.67;;;2.47;;
19687;SDS011;9993;52.008;4.732;2023-02-19T16:35:44;1.70;;;1.60;;
19687;SDS011;9993;52.008;4.732;2023-02-19T16:38:13;1.97;;;1.87;;
19687;SDS011;9993;52.008;4.732;2023-02-19T16:45:41;2.53;;;2.33;;
19687;SDS011;9993;52.008;4.732;2023-02-19T16:48:07;3.80;;;2.50;;
19687;SDS011;9993;52.008;4.732;2023-02-19T16:50:32;2.67;;;2.47;;
19687;SDS011;9993;52.008;4.732;2023-02-19T16:52:58;3.63;;;2.53;;
19687;SDS011;9993;52.008;4.732;2023-02-19T16:55:24;1.60;;;1.60;;
19687;SDS011;9993;52.008;4.732;2023-02-19T16:57:49;1.93;;;1.83;;
19687;SDS011;9993;52.008;4.732;2023-02-19T17:00:22;2.20;;;2.10;;
19687;SDS011;9993;52.008;4.732;2023-02-19T17:02:53;2.07;;;1.97;;
19687;SDS011;9993;52.008;4.732;2023-02-19T17:05:19;2.80;;;2.60;;
19687;SDS011;9993;52.008;4.732;2023-02-19T17:07:46;2.73;;;2.50;;
19687;SDS011;9993;52.008;4.732;2023-02-19T17:10:15;2.67;;;2.47;;
19687;SDS011;9993;52.008;4.732;2023-02-19T17:12:41;2.27;;;2.07;;
19687;SDS011;9993;52.008;4.732;2023-02-19T17:15:06;2.17;;;2.07;;
19687;SDS011;9993;52.008;4.732;2023-02-19T17:17:31;1.93;;;1.83;;
19687;SDS011;9993;52.008;4.732;2023-02-19T17:19:57;2.47;;;2.27;;
19687;SDS011;9993;52.008;4.732;2023-02-19T17:22:22;2.00;;;1.90;;
19687;SDS011;9993;52.008;4.732;2023-02-19T17:24:47;2.40;;;2.20;;
19687;SDS011;9993;52.008;4.732;2023-02-19T17:27:12;2.47;;;2.27;;
19687;SDS011;9993;52.008;4.732;2023-02-19T17:29:38;2.77;;;2.57;;
19687;SDS011;9993;52.008;4.732;2023-02-19T17:32:03;2.40;;;2.30;;
19687;SDS011;9993;52.008;4.732;2023-02-19T17:34:28;2.30;;;2.20;;
19687;SDS011;9993;52.008;4.732;2023-02-19T17:36:54;2.70;;;2.50;;
19687;SDS011;9993;52.008;4.732;2023-02-19T17:39:19;3.17;;;2.87;;
19687;SDS011;9993;52.008;4.732;2023-02-19T17:41:44;3.30;;;2.97;;
19687;SDS011;9993;52.008;4.732;2023-02-19T17:44:11;2.70;;;2.50;;
19687;SDS011;9993;52.008;4.732;2023-02-19T17:46:36;4.57;;;2.70;;
19687;SDS011;9993;52.008;4.732;2023-02-19T17:49:02;2.70;;;2.50;;
19687;SDS011;9993;52.008;4.732;2023-02-19T17:51:27;2.87;;;2.67;;
19687;SDS011;9993;52.008;4.732;2023-02-19T17:53:52;4.07;;;3.00;;
19687;SDS011;9993;52.008;4.732;2023-02-19T17:56:23;3.70;;;3.13;;
19687;SDS011;9993;52.008;4.732;2023-02-19T17:58:56;2.93;;;2.70;;
19687;SDS011;9993;52.008;4.732;2023-02-19T18:01:24;3.30;;;3.00;;
19687;SDS011;9993;52.008;4.732;2023-02-19T18:03:49;3.10;;;2.37;;
19687;SDS011;9993;52.008;4.732;2023-02-19T18:06:15;3.97;;;3.53;;
19687;SDS011;9993;52.008;4.732;2023-02-19T18:08:49;3.73;;;3.43;;
19687;SDS011;9993;52.008;4.732;2023-02-19T18:11:15;3.30;;;3.00;;
19687;SDS011;9993;52.008;4.732;2023-02-19T18:13:41;5.07;;;3.93;;
19687;SDS011;9993;52.008;4.732;2023-02-19T18:16:06;6.17;;;4.30;;
19687;SDS011;9993;52.008;4.732;2023-02-19T18:18:31;5.27;;;4.30;;
19687;SDS011;9993;52.008;4.732;2023-02-19T18:20:56;4.70;;;3.83;;
19687;SDS011;9993;52.008;4.732;2023-02-19T18:23:22;4.07;;;3.67;;